Time;durP1;ratioP1;P1;durP2;ratioP2;P2;SDS_P1;SDS_P2;PMS_P1;PMS_P2;Temp;Humidity;BMP_temperature;BMP_pressure;BME280_temperature;BME280_humidity;BME280_pressure;Samples;Min_cycle;Max_cycle;Signal;HPM_P1;HPM_P2
2022/11/06 00:00:13;;;;;;;;;;;;;;;;;;5076355;28;983;-77
2022/11/06 00:02:38;;;;;;;;;;;;;;;;;;5076293;28;1906;-77
2022/11/06 00:07:48;;;;;;;;;;;;;;;;;;5103115;28;868;-77
2022/11/06 00:10:14;;;;;;;;;;;;;;;;;;5074145;28;1159;-77
2022/11/06 00:12:39;;;;;;;;;;;;;;;;;;5074253;28;1222;-77
2022/11/06 00:15:05;;;;;;;;;;;;;;;;;;5074391;28;1206;-76
2022/11/06 00:17:30;;;;;;;;;;;;;;;;;;5108422;28;860;-76
2022/11/06 00:19:55;;;;;;;;;;;;;;;;;;5075629;28;1090;-77
2022/11/06 00:22:21;;;;;;;;;;;;;;;;;;5107611;28;1901;-77
2022/11/06 00:24:48;;;;;;;;;;;;;;;;;;5075018;28;1081;-76
2022/11/06 00:27:13;;;;;;;;;;;;;;;;;;5073845;28;1333;-77
2022/11/06 00:29:39;;;;;;;;;;;;;;;;;;5074130;28;1254;-77
2022/11/06 00:32:05;;;;;;;;;;;;;;;;;;5074645;28;813;-77
2022/11/06 00:34:30;;;;;;;;;;;;;;;;;;5090254;28;1123;-77
2022/11/06 00:36:55;;;;;;;;;;;;;;;;;;5073168;28;1103;-77
2022/11/06 00:39:20;;;;;;;;;;;;;;;;;;5090668;28;1123;-77
2022/11/06 00:41:46;;;;;;;;;;;;;;;;;;5082107;28;1914;-77
2022/11/06 00:44:15;;;;;;;;;;;;;;;;;;5036613;28;1301;-77
2022/11/06 00:46:42;;;;;;;;;;;;;;;;;;5054420;28;1321;-77
2022/11/06 00:49:07;;;;;;;;;;;;;;;;;;5053830;28;1265;-77
2022/11/06 00:51:34;;;;;;;;;;;;;;;;;;5055022;28;813;-76
2022/11/06 00:54:01;;;;;;;;;;;;;;;;;;5054453;28;891;-77
2022/11/06 00:56:27;;;;;;;;;;;;;;;;;;5053690;28;1195;-77
2022/11/06 00:58:52;;;;;;;;;;;;;;;;;;5055254;28;800;-77
2022/11/06 01:01:22;;;;;;;;;;;;;;;;;;5055154;28;1961;-77
2022/11/06 01:03:50;;;;;;;;;;;;;;;;;;5054280;28;1007;-77
2022/11/06 01:06:17;;;;;;;;;;;;;;;;;;5056068;28;901;-77
2022/11/06 01:08:43;;;;;;;;;;;;;;;;;;5055462;28;908;-77
2022/11/06 01:11:29;;;;;;;;;;;;;;;;;;5055490;28;955;-77
2022/11/06 01:13:56;;;;;;;;;;;;;;;;;;5054298;28;3516;-75
2022/11/06 01:16:22;;;;;;;;;;;;;;;;;;5059088;28;3343;-77
2022/11/06 01:18:48;;;;;;;;;;;;;;;;;;5067696;28;1166;-77
2022/11/06 01:21:14;;;;;;;;;;;;;;;;;;5073048;28;1965;-77
2022/11/06 01:23:40;;;;;;;;;;;;;;;;;;5074497;28;1043;-77
2022/11/06 01:26:06;;;;;;;;;;;;;;;;;;5073367;28;1252;-75
2022/11/06 01:28:32;;;;;;;;;;;;;;;;;;5074318;28;877;-76
2022/11/06 01:31:05;;;;;;;;;;;;;;;;;;5080581;28;1270;-76
2022/11/06 01:33:30;;;;;;;;;;;;;;;;;;5077458;28;1011;-76
2022/11/06 01:35:55;;;;;;;;;;;;;;;;;;5072421;28;1155;-76
2022/11/06 01:38:20;;;;;;;;;;;;;;;;;;5089499;28;1167;-76
2022/11/06 01:40:46;;;;;;;;;;;;;;;;;;5074381;28;900;-76
2022/11/06 01:43:23;;;;;;;;;;;;;;;;;;5074246;28;1894;-76
2022/11/06 01:45:49;;;;;;;;;;;;;;;;;;5071748;28;1174;-76
2022/11/06 01:48:17;;;;;;;;;;;;;;;;;;5072611;28;1206;-76
2022/11/06 01:50:43;;;;;;;;;;;;;;;;;;5072392;28;1072;-76
2022/11/06 01:53:09;;;;;;;;;;;;;;;;;;5073377;28;813;-76
2022/11/06 01:55:37;;;;;;;;;;;;;;;;;;5073281;28;837;-76
2022/11/06 01:58:04;;;;;;;;;;;;;;;;;;5073391;28;820;-76
2022/11/06 02:00:31;;;;;;;;;;;;;;;;;;5072297;28;1249;-76
2022/11/06 02:02:57;;;;;;;;;;;;;;;;;;5071771;28;1906;-76
2022/11/06 02:05:22;;;;;;;;;;;;;;;;;;5072856;28;912;-76
2022/11/06 02:07:48;;;;;;;;;;;;;;;;;;5089043;28;1059;-76
2022/11/06 02:10:13;;;;;;;;;;;;;;;;;;5071942;28;1095;-76
2022/11/06 02:12:41;;;;;;;;;;;;;;;;;;5105818;28;947;-76
2022/11/06 02:15:20;;;;;;;;;;;;;;;;;;5070609;28;1190;-76
2022/11/06 02:18:00;;;;;;;;;;;;;;;;;;5074027;28;876;-77
2022/11/06 02:20:25;;;;;;;;;;;;;;;;;;5073321;28;969;-76
2022/11/06 02:22:50;;;;;;;;;;;;;;;;;;5071657;28;1949;-76
2022/11/06 02:25:15;;;;;;;;;;;;;;;;;;5072222;28;1207;-77
2022/11/06 02:27:44;;;;;;;;;;;;;;;;;;5075019;28;829;-77
2022/11/06 02:30:10;;;;;;;;;;;;;;;;;;5072666;28;1191;-77
2022/11/06 02:32:43;;;;;;;;;;;;;;;;;;5072030;28;3661;-77
2022/11/06 02:35:26;;;;;;;;;;;;;;;;;;5052873;28;1216;-77
2022/11/06 02:37:56;;;;;;;;;;;;;;;;;;5054214;28;766;-76
2022/11/06 02:40:23;;;;;;;;;;;;;;;;;;5053123;28;1168;-75
2022/11/06 02:42:51;;;;;;;;;;;;;;;;;;5054045;28;1965;-76
2022/11/06 02:45:18;;;;;;;;;;;;;;;;;;5080914;28;1185;-76
2022/11/06 02:47:45;;;;;;;;;;;;;;;;;;5078820;28;1207;-76
2022/11/06 02:50:16;;;;;;;;;;;;;;;;;;5085095;28;1255;-77
2022/11/06 02:52:54;;;;;;;;;;;;;;;;;;5092755;28;991;-76
2022/11/06 02:55:24;;;;;;;;;;;;;;;;;;5093497;28;844;-77
2022/11/06 02:57:51;;;;;;;;;;;;;;;;;;5093591;28;824;-78
2022/11/06 03:00:17;;;;;;;;;;;;;;;;;;5082519;28;1135;-77
2022/11/06 03:02:48;;;;;;;;;;;;;;;;;;5080169;28;1938;-78
2022/11/06 03:05:32;;;;;;;;;;;;;;;;;;5085272;28;1195;-78
2022/11/06 03:08:15;;;;;;;;;;;;;;;;;;5071797;28;1164;-78
2022/11/06 03:10:49;;;;;;;;;;;;;;;;;;5072274;28;1210;-77
2022/11/06 03:13:26;;;;;;;;;;;;;;;;;;5071768;28;1325;-77
2022/11/06 03:15:56;;;;;;;;;;;;;;;;;;5072968;28;896;-77
2022/11/06 03:18:26;;;;;;;;;;;;;;;;;;5073629;28;932;-78
2022/11/06 03:20:57;;;;;;;;;;;;;;;;;;5071168;28;1182;-77
2022/11/06 03:23:32;;;;;;;;;;;;;;;;;;5072694;28;1918;-78
2022/11/06 03:25:57;;;;;;;;;;;;;;;;;;5072172;28;1291;-77
2022/11/06 03:28:31;;;;;;;;;;;;;;;;;;5076859;28;887;-78
2022/11/06 03:31:02;;;;;;;;;;;;;;;;;;5075078;28;1060;-78
2022/11/06 03:33:36;;;;;;;;;;;;;;;;;;5076618;28;908;-78
2022/11/06 03:36:06;;;;;;;;;;;;;;;;;;5076415;28;912;-79
2022/11/06 03:38:37;;;;;;;;;;;;;;;;;;5076470;28;884;-76
2022/11/06 03:41:14;;;;;;;;;;;;;;;;;;5075966;28;939;-77
2022/11/06 03:43:41;;;;;;;;;;;;;;;;;;5076276;28;965;-76
2022/11/06 03:46:10;;;;;;;;;;;;;;;;;;5074734;28;1298;-76
2022/11/06 03:48:39;;;;;;;;;;;;;;;;;;5074533;28;1158;-77
2022/11/06 03:51:18;;;;;;;;;;;;;;;;;;5075704;28;891;-78
2022/11/06 03:53:46;;;;;;;;;;;;;;;;;;5074999;28;1221;-78
2022/11/06 03:56:14;;;;;;;;;;;;;;;;;;5076571;28;884;-78
2022/11/06 03:58:41;;;;;;;;;;;;;;;;;;5074155;28;1138;-78
2022/11/06 04:01:09;;;;;;;;;;;;;;;;;;5074369;28;1273;-78
2022/11/06 04:03:38;;;;;;;;;;;;;;;;;;5076061;28;1971;-78
2022/11/06 04:06:23;;;;;;;;;;;;;;;;;;5073789;28;1160;-77
2022/11/06 04:14:23;;;;;;;;;;;;;;;;;;5075589;28;747;-78
2022/11/06 04:16:50;;;;;;;;;;;;;;;;;;5074032;28;1097;-78
2022/11/06 04:19:16;;;;;;;;;;;;;;;;;;5075908;28;1030;-78
2022/11/06 04:21:45;;;;;;;;;;;;;;;;;;5072890;28;3045;-78
2022/11/06 04:27:14;;;;;;;;;;;;;;;;;;5074865;28;651;-78
2022/11/06 04:29:58;;;;;;;;;;;;;;;;;;5073972;28;1269;-78
2022/11/06 04:32:43;;;;;;;;;;;;;;;;;;5074859;28;862;-78
2022/11/06 04:35:10;;;;;;;;;;;;;;;;;;5073177;28;1202;-78
2022/11/06 04:37:44;;;;;;;;;;;;;;;;;;5074602;28;876;-78
2022/11/06 04:40:19;;;;;;;;;;;;;;;;;;5072168;28;1106;-78
2022/11/06 04:43:14;;;;;;;;;;;;;;;;;;5072709;28;1991;-78
2022/11/06 04:45:42;;;;;;;;;;;;;;;;;;5073123;28;1178;-78
2022/11/06 04:48:08;;;;;;;;;;;;;;;;;;5074370;28;860;-78
2022/11/06 04:50:42;;;;;;;;;;;;;;;;;;5074248;28;968;-78
2022/11/06 04:53:09;;;;;;;;;;;;;;;;;;5074012;28;999;-78
2022/11/06 04:55:44;;;;;;;;;;;;;;;;;;5073858;28;1159;-78
2022/11/06 04:58:10;;;;;;;;;;;;;;;;;;5073842;28;872;-78
2022/11/06 05:00:36;;;;;;;;;;;;;;;;;;5072586;28;1353;-77
2022/11/06 05:03:01;;;;;;;;;;;;;;;;;;5088995;28;1894;-77
2022/11/06 05:05:26;;;;;;;;;;;;;;;;;;5089310;28;1277;-77
2022/11/06 05:07:51;;;;;;;;;;;;;;;;;;5073552;28;829;-77
2022/11/06 05:10:17;;;;;;;;;;;;;;;;;;5072096;28;1146;-77
2022/11/06 05:12:42;;;;;;;;;;;;;;;;;;5106153;28;836;-77
2022/11/06 05:15:08;;;;;;;;;;;;;;;;;;5089246;28;1125;-77
2022/11/06 05:17:33;;;;;;;;;;;;;;;;;;5106659;28;955;-77
2022/11/06 05:19:58;;;;;;;;;;;;;;;;;;5089530;28;1317;-78
2022/11/06 05:25:08;;;;;;;;;;;;;;;;;;5102031;28;1327;-77
2022/11/06 05:27:33;;;;;;;;;;;;;;;;;;5107138;28;929;-78
2022/11/06 05:29:58;;;;;;;;;;;;;;;;;;5107440;28;935;-78
2022/11/06 05:32:23;;;;;;;;;;;;;;;;;;5073690;28;1171;-78
2022/11/06 05:34:49;;;;;;;;;;;;;;;;;;5089510;28;1146;-78
2022/11/06 05:37:14;;;;;;;;;;;;;;;;;;5090386;28;1146;-78
2022/11/06 05:39:39;;;;;;;;;;;;;;;;;;5073123;28;1293;-78
2022/11/06 05:42:06;;;;;;;;;;;;;;;;;;5072460;28;1905;-78
2022/11/06 05:44:31;;;;;;;;;;;;;;;;;;5089264;28;1182;-78
2022/11/06 05:46:56;;;;;;;;;;;;;;;;;;5106088;28;1114;-78
2022/11/06 05:49:21;;;;;;;;;;;;;;;;;;5073892;28;939;-78
2022/11/06 05:51:47;;;;;;;;;;;;;;;;;;5089654;28;1280;-77
2022/11/06 05:54:12;;;;;;;;;;;;;;;;;;5072443;28;1245;-77
2022/11/06 05:56:38;;;;;;;;;;;;;;;;;;5073164;28;1130;-77
2022/11/06 05:59:05;;;;;;;;;;;;;;;;;;5075971;28;1230;-77
2022/11/06 06:01:30;;;;;;;;;;;;;;;;;;5073166;28;1902;-77
2022/11/06 06:03:56;;;;;;;;;;;;;;;;;;5073013;28;908;-78
2022/11/06 06:06:21;;;;;;;;;;;;;;;;;;5073863;28;1148;-77
2022/11/06 06:08:47;;;;;;;;;;;;;;;;;;5065704;28;3101;-78
2022/11/06 06:11:13;;;;;;;;;;;;;;;;;;5078169;28;1199;-79
2022/11/06 06:13:38;;;;;;;;;;;;;;;;;;5086391;28;1320;-77
2022/11/06 06:16:04;;;;;;;;;;;;;;;;;;5090139;28;1163;-78
2022/11/06 06:18:30;;;;;;;;;;;;;;;;;;5086643;28;1633;-78
2022/11/06 06:20:58;;;;;;;;;;;;;;;;;;5079762;28;1183;-78
2022/11/06 06:23:23;;;;;;;;;;;;;;;;;;5081819;28;1914;-78
2022/11/06 06:25:49;;;;;;;;;;;;;;;;;;5075596;28;1291;-78
2022/11/06 06:28:14;;;;;;;;;;;;;;;;;;5093935;28;1526;-78
2022/11/06 06:30:39;;;;;;;;;;;;;;;;;;5077115;28;1147;-78
2022/11/06 06:33:05;;;;;;;;;;;;;;;;;;5095579;28;1038;-77
2022/11/06 06:35:31;;;;;;;;;;;;;;;;;;5094720;28;1256;-77
2022/11/06 06:37:56;;;;;;;;;;;;;;;;;;5096289;28;832;-77
2022/11/06 06:40:22;;;;;;;;;;;;;;;;;;5095559;28;831;-78
2022/11/06 06:42:48;;;;;;;;;;;;;;;;;;5081616;28;1906;-78
2022/11/06 06:45:14;;;;;;;;;;;;;;;;;;5110015;28;1241;-77
2022/11/06 06:47:41;;;;;;;;;;;;;;;;;;5107511;28;1165;-78
2022/11/06 06:50:07;;;;;;;;;;;;;;;;;;5106496;28;864;-78
2022/11/06 06:52:33;;;;;;;;;;;;;;;;;;5105483;28;1201;-78
2022/11/06 06:54:58;;;;;;;;;;;;;;;;;;5097316;28;858;-78
2022/11/06 06:57:23;;;;;;;;;;;;;;;;;;5079367;28;1183;-78
2022/11/06 06:59:51;;;;;;;;;;;;;;;;;;5095973;28;1221;-77
2022/11/06 07:02:17;;;;;;;;;;;;;;;;;;5099469;28;1937;-78
2022/11/06 07:04:42;;;;;;;;;;;;;;;;;;5100406;28;844;-77
2022/11/06 07:07:07;;;;;;;;;;;;;;;;;;5100462;28;1149;-79
2022/11/06 07:09:33;;;;;;;;;;;;;;;;;;5082435;28;1147;-78
2022/11/06 07:11:58;;;;;;;;;;;;;;;;;;5099641;28;1110;-79
2022/11/06 07:14:23;;;;;;;;;;;;;;;;;;5099065;28;1054;-79
2022/11/06 07:16:48;;;;;;;;;;;;;;;;;;5082196;28;1390;-79
2022/11/06 07:19:14;;;;;;;;;;;;;;;;;;5102985;28;1081;-78
2022/11/06 07:21:39;;;;;;;;;;;;;;;;;;5100422;28;1897;-79
2022/11/06 07:24:04;;;;;;;;;;;;;;;;;;5100391;28;821;-80
2022/11/06 07:26:30;;;;;;;;;;;;;;;;;;5082214;28;1243;-79
2022/11/06 07:28:57;;;;;;;;;;;;;;;;;;5100030;28;817;-78
2022/11/06 07:31:23;;;;;;;;;;;;;;;;;;5096218;28;990;-78
2022/11/06 07:33:48;;;;;;;;;;;;;;;;;;5097518;28;862;-78
2022/11/06 07:36:13;;;;;;;;;;;;;;;;;;5079556;28;1269;-78
2022/11/06 07:38:40;;;;;;;;;;;;;;;;;;5096037;28;1372;-78
2022/11/06 07:41:07;;;;;;;;;;;;;;;;;;5096313;28;1245;-79
2022/11/06 07:43:32;;;;;;;;;;;;;;;;;;5097404;28;1964;-78
2022/11/06 07:45:59;;;;;;;;;;;;;;;;;;5096946;28;892;-78
2022/11/06 07:48:25;;;;;;;;;;;;;;;;;;5095431;28;1174;-78
2022/11/06 07:50:50;;;;;;;;;;;;;;;;;;5096728;28;888;-79
2022/11/06 07:53:15;;;;;;;;;;;;;;;;;;5095650;28;1185;-78
2022/11/06 07:55:46;;;;;;;;;;;;;;;;;;5077857;28;1149;-79
2022/11/06 07:58:12;;;;;;;;;;;;;;;;;;5081199;28;1891;-79
2022/11/06 08:00:37;;;;;;;;;;;;;;;;;;5074388;28;1090;-78
2022/11/06 08:03:02;;;;;;;;;;;;;;;;;;5090839;28;1901;-79
2022/11/06 08:05:28;;;;;;;;;;;;;;;;;;5075126;28;813;-77
2022/11/06 08:07:56;;;;;;;;;;;;;;;;;;5073702;28;1199;-79
2022/11/06 08:10:21;;;;;;;;;;;;;;;;;;5107756;28;825;-79
2022/11/06 08:12:47;;;;;;;;;;;;;;;;;;5074784;28;979;-79
2022/11/06 08:15:30;;;;;;;;;;;;;;;;;;5089546;28;1131;-79
2022/11/06 08:17:57;;;;;;;;;;;;;;;;;;5074927;28;844;-78
2022/11/06 08:20:22;;;;;;;;;;;;;;;;;;5074712;28;1042;-79
2022/11/06 08:22:47;;;;;;;;;;;;;;;;;;5074439;28;1914;-79
2022/11/06 08:25:13;;;;;;;;;;;;;;;;;;5073271;28;1169;-78
2022/11/06 08:27:38;;;;;;;;;;;;;;;;;;5073347;28;1245;-79
2022/11/06 08:30:03;;;;;;;;;;;;;;;;;;5074392;28;793;-78
2022/11/06 08:32:28;;;;;;;;;;;;;;;;;;5090811;28;1274;-79
2022/11/06 08:34:54;;;;;;;;;;;;;;;;;;5091002;28;1185;-79
2022/11/06 08:37:19;;;;;;;;;;;;;;;;;;5074712;28;915;-78
2022/11/06 08:39:45;;;;;;;;;;;;;;;;;;5075191;28;903;-79
2022/11/06 08:42:10;;;;;;;;;;;;;;;;;;5074049;28;1914;-79
2022/11/06 08:44:36;;;;;;;;;;;;;;;;;;5058774;28;2685;-78
2022/11/06 08:47:01;;;;;;;;;;;;;;;;;;5052958;28;1139;-79
2022/11/06 08:49:26;;;;;;;;;;;;;;;;;;5069312;28;1159;-79
2022/11/06 08:51:53;;;;;;;;;;;;;;;;;;5056044;28;3006;-78
2022/11/06 08:54:18;;;;;;;;;;;;;;;;;;5065207;28;825;-79
2022/11/06 08:56:43;;;;;;;;;;;;;;;;;;5052981;28;1207;-80
2022/11/06 08:59:09;;;;;;;;;;;;;;;;;;5035684;28;1301;-76
2022/11/06 09:01:34;;;;;;;;;;;;;;;;;;5035817;28;1917;-75
2022/11/06 09:04:00;;;;;;;;;;;;;;;;;;5035323;28;990;-76
2022/11/06 09:06:25;;;;;;;;;;;;;;;;;;5051847;28;1099;-76
2022/11/06 09:08:50;;;;;;;;;;;;;;;;;;5053454;28;962;-76
2022/11/06 09:11:16;;;;;;;;;;;;;;;;;;5035138;28;1309;-75
2022/11/06 09:13:41;;;;;;;;;;;;;;;;;;5051902;28;1154;-75
2022/11/06 09:16:06;;;;;;;;;;;;;;;;;;5035459;28;1293;-75
2022/11/06 09:18:31;;;;;;;;;;;;;;;;;;5053602;28;1054;-75
2022/11/06 09:20:57;;;;;;;;;;;;;;;;;;5053007;28;841;-75
2022/11/06 09:23:23;;;;;;;;;;;;;;;;;;5053362;28;1902;-74
2022/11/06 09:25:48;;;;;;;;;;;;;;;;;;5052192;28;1189;-75
2022/11/06 09:28:14;;;;;;;;;;;;;;;;;;5053326;28;824;-74
2022/11/06 09:30:39;;;;;;;;;;;;;;;;;;5052707;28;1146;-74
2022/11/06 09:33:04;;;;;;;;;;;;;;;;;;5054222;28;939;-74
2022/11/06 09:35:32;;;;;;;;;;;;;;;;;;5052327;28;873;-74
2022/11/06 09:38:01;;;;;;;;;;;;;;;;;;5052573;28;876;-74
2022/11/06 09:40:37;;;;;;;;;;;;;;;;;;5052553;28;817;-74
2022/11/06 09:43:21;;;;;;;;;;;;;;;;;;5050879;28;1957;-74
2022/11/06 09:45:48;;;;;;;;;;;;;;;;;;5051353;28;1159;-75
2022/11/06 09:48:24;;;;;;;;;;;;;;;;;;5050438;28;1252;-74
2022/11/06 09:50:55;;;;;;;;;;;;;;;;;;5053072;28;2819;-75
2022/11/06 09:53:23;;;;;;;;;;;;;;;;;;5072086;28;892;-75
2022/11/06 09:55:48;;;;;;;;;;;;;;;;;;5072410;28;979;-75
2022/11/06 09:58:17;;;;;;;;;;;;;;;;;;5071024;28;1249;-75
2022/11/06 10:00:43;;;;;;;;;;;;;;;;;;5073835;28;1270;-75
2022/11/06 10:03:27;;;;;;;;;;;;;;;;;;5073890;28;1878;-75
2022/11/06 10:05:52;;;;;;;;;;;;;;;;;;5072364;28;1179;-74
2022/11/06 10:08:21;;;;;;;;;;;;;;;;;;5073273;28;899;-74
2022/11/06 10:10:58;;;;;;;;;;;;;;;;;;5070960;28;1420;-74
2022/11/06 10:13:29;;;;;;;;;;;;;;;;;;5072341;28;829;-75
2022/11/06 10:16:01;;;;;;;;;;;;;;;;;;5072576;28;872;-75
2022/11/06 10:18:31;;;;;;;;;;;;;;;;;;5072718;28;932;-75
2022/11/06 10:21:20;;;;;;;;;;;;;;;;;;5071069;28;1163;-75
2022/11/06 10:23:51;;;;;;;;;;;;;;;;;;5075177;28;1960;-75
2022/11/06 10:26:17;;;;;;;;;;;;;;;;;;5070528;28;1204;-75
2022/11/06 10:29:07;;;;;;;;;;;;;;;;;;5072634;28;851;-75
2022/11/06 10:31:57;;;;;;;;;;;;;;;;;;5073008;28;871;-75
2022/11/06 10:34:42;;;;;;;;;;;;;;;;;;5071427;28;1314;-75
2022/11/06 10:37:28;;;;;;;;;;;;;;;;;;5069749;28;1321;-75
2022/11/06 10:39:54;;;;;;;;;;;;;;;;;;5072794;28;1087;-74
2022/11/06 10:42:22;;;;;;;;;;;;;;;;;;5072362;28;1910;-74
2022/11/06 10:44:55;;;;;;;;;;;;;;;;;;5071278;28;1305;-74
2022/11/06 10:47:41;;;;;;;;;;;;;;;;;;5070881;28;1162;-74
2022/11/06 10:50:10;;;;;;;;;;;;;;;;;;5072255;28;971;-74
2022/11/06 10:52:45;;;;;;;;;;;;;;;;;;5073276;28;900;-74
2022/11/06 10:55:13;;;;;;;;;;;;;;;;;;5071250;28;1163;-74
2022/11/06 10:57:41;;;;;;;;;;;;;;;;;;5072854;28;1018;-74
2022/11/06 11:00:10;;;;;;;;;;;;;;;;;;5071564;28;1419;-74
2022/11/06 11:02:38;;;;;;;;;;;;;;;;;;5070918;28;1965;-74
2022/11/06 11:05:14;;;;;;;;;;;;;;;;;;5071076;28;1293;-75
2022/11/06 11:07:40;;;;;;;;;;;;;;;;;;5073064;28;864;-74
2022/11/06 11:10:24;;;;;;;;;;;;;;;;;;5072313;28;984;-74
2022/11/06 11:12:51;;;;;;;;;;;;;;;;;;5071616;28;1151;-75
2022/11/06 11:15:18;;;;;;;;;;;;;;;;;;5072747;28;866;-75
2022/11/06 11:18:03;;;;;;;;;;;;;;;;;;5072442;28;852;-75
2022/11/06 11:20:31;;;;;;;;;;;;;;;;;;5070723;28;1162;-75
2022/11/06 11:23:06;;;;;;;;;;;;;;;;;;5070900;28;1906;-75
2022/11/06 11:25:31;;;;;;;;;;;;;;;;;;5071138;28;1220;-76
2022/11/06 11:27:57;;;;;;;;;;;;;;;;;;5088005;28;1158;-76
2022/11/06 11:30:25;;;;;;;;;;;;;;;;;;5071306;28;1158;-78
2022/11/06 11:32:51;;;;;;;;;;;;;;;;;;5071551;28;1199;-79
2022/11/06 11:35:18;;;;;;;;;;;;;;;;;;5087966;28;1157;-78
2022/11/06 11:37:44;;;;;;;;;;;;;;;;;;5072657;28;1226;-78
2022/11/06 11:40:35;;;;;;;;;;;;;;;;;;5058417;28;2712;-79
2022/11/06 11:43:18;;;;;;;;;;;;;;;;;;5060016;28;2047;-79
2022/11/06 11:45:44;;;;;;;;;;;;;;;;;;5052302;28;1129;-79
2022/11/06 11:48:11;;;;;;;;;;;;;;;;;;5053056;28;1123;-80
2022/11/06 11:50:37;;;;;;;;;;;;;;;;;;5055120;28;1167;-78
2022/11/06 11:53:19;;;;;;;;;;;;;;;;;;5071839;28;1300;-78
2022/11/06 11:55:47;;;;;;;;;;;;;;;;;;5055296;28;1340;-78
2022/11/06 11:58:24;;;;;;;;;;;;;;;;;;5054915;28;1309;-78
2022/11/06 12:00:53;;;;;;;;;;;;;;;;;;5054267;28;1277;-78
2022/11/06 12:03:18;;;;;;;;;;;;;;;;;;5056023;28;1972;-79
2022/11/06 12:05:44;;;;;;;;;;;;;;;;;;5071528;28;1198;-80
2022/11/06 12:08:20;;;;;;;;;;;;;;;;;;5088542;28;887;-80
2022/11/06 12:10:46;;;;;;;;;;;;;;;;;;5054410;28;1183;-80
2022/11/06 12:13:24;;;;;;;;;;;;;;;;;;5055626;28;866;-80
2022/11/06 12:16:04;;;;;;;;;;;;;;;;;;5055411;28;821;-81
2022/11/06 12:18:31;;;;;;;;;;;;;;;;;;5053613;28;1108;-79
2022/11/06 12:21:00;;;;;;;;;;;;;;;;;;5053607;28;1256;-79
2022/11/06 12:23:28;;;;;;;;;;;;;;;;;;5053172;28;1906;-79
2022/11/06 12:26:14;;;;;;;;;;;;;;;;;;5054002;28;1191;-79
2022/11/06 12:28:40;;;;;;;;;;;;;;;;;;5054565;28;1275;-80
2022/11/06 12:31:16;;;;;;;;;;;;;;;;;;5055982;28;841;-80
2022/11/06 12:33:44;;;;;;;;;;;;;;;;;;5053756;28;1266;-79
2022/11/06 12:36:12;;;;;;;;;;;;;;;;;;5055091;28;991;-80
2022/11/06 12:38:53;;;;;;;;;;;;;;;;;;5054842;28;1301;-80
2022/11/06 12:41:22;;;;;;;;;;;;;;;;;;5055333;28;1003;-80
2022/11/06 12:43:49;;;;;;;;;;;;;;;;;;5055583;28;1911;-79
2022/11/06 12:46:37;;;;;;;;;;;;;;;;;;5055267;28;959;-79
2022/11/06 12:49:20;;;;;;;;;;;;;;;;;;5053624;28;1073;-80
2022/11/06 12:52:01;;;;;;;;;;;;;;;;;;5053190;28;1360;-80
2022/11/06 12:54:27;;;;;;;;;;;;;;;;;;5054595;28;876;-79
2022/11/06 12:57:03;;;;;;;;;;;;;;;;;;5053429;28;1384;-79
2022/11/06 12:59:29;;;;;;;;;;;;;;;;;;5053536;28;872;-79
2022/11/06 13:02:02;;;;;;;;;;;;;;;;;;5053658;28;1906;-79
2022/11/06 13:04:33;;;;;;;;;;;;;;;;;;5053504;28;1166;-79
2022/11/06 13:07:08;;;;;;;;;;;;;;;;;;5054728;28;916;-79
2022/11/06 13:09:46;;;;;;;;;;;;;;;;;;5054273;28;896;-80
2022/11/06 13:12:17;;;;;;;;;;;;;;;;;;5053230;28;1139;-79
2022/11/06 13:15:01;;;;;;;;;;;;;;;;;;5054011;28;900;-80
2022/11/06 13:17:33;;;;;;;;;;;;;;;;;;5052605;28;1226;-79
2022/11/06 13:19:58;;;;;;;;;;;;;;;;;;5053591;28;1075;-79
2022/11/06 13:22:34;;;;;;;;;;;;;;;;;;5052243;28;1963;-80
2022/11/06 13:25:06;;;;;;;;;;;;;;;;;;5052513;28;1202;-79
2022/11/06 13:27:37;;;;;;;;;;;;;;;;;;5052604;28;1327;-79
2022/11/06 13:30:12;;;;;;;;;;;;;;;;;;5053388;28;888;-79
2022/11/06 13:32:39;;;;;;;;;;;;;;;;;;5052304;28;1435;-79
2022/11/06 13:35:05;;;;;;;;;;;;;;;;;;5052922;28;817;-80
2022/11/06 13:37:33;;;;;;;;;;;;;;;;;;5052990;28;858;-80
2022/11/06 13:40:05;;;;;;;;;;;;;;;;;;5053478;28;889;-80
2022/11/06 13:42:37;;;;;;;;;;;;;;;;;;5051251;28;1910;-80
2022/11/06 13:45:05;;;;;;;;;;;;;;;;;;5051696;28;1420;-80
2022/11/06 13:47:37;;;;;;;;;;;;;;;;;;5051768;28;1175;-80
2022/11/06 13:50:06;;;;;;;;;;;;;;;;;;5052131;28;1229;-80
2022/11/06 13:52:46;;;;;;;;;;;;;;;;;;5052332;28;852;-80
2022/11/06 13:55:15;;;;;;;;;;;;;;;;;;5051148;28;1305;-80
2022/11/06 13:57:46;;;;;;;;;;;;;;;;;;5052897;28;979;-79
2022/11/06 14:00:18;;;;;;;;;;;;;;;;;;5051421;28;1156;-79
2022/11/06 14:03:01;;;;;;;;;;;;;;;;;;5053499;28;1894;-80
2022/11/06 14:05:27;;;;;;;;;;;;;;;;;;5052138;28;1421;-80
2022/11/06 14:07:53;;;;;;;;;;;;;;;;;;5054023;28;959;-80
2022/11/06 14:10:22;;;;;;;;;;;;;;;;;;5085400;28;954;-79
2022/11/06 14:12:48;;;;;;;;;;;;;;;;;;5053855;28;844;-80
2022/11/06 14:15:21;;;;;;;;;;;;;;;;;;5052029;28;1078;-79
2022/11/06 14:17:57;;;;;;;;;;;;;;;;;;5051911;28;1254;-79
2022/11/06 14:20:40;;;;;;;;;;;;;;;;;;5051337;28;1301;-80
2022/11/06 14:23:24;;;;;;;;;;;;;;;;;;5052582;28;1902;-80
2022/11/06 14:26:02;;;;;;;;;;;;;;;;;;5051808;28;1144;-80
2022/11/06 14:28:37;;;;;;;;;;;;;;;;;;5051719;28;1175;-80
2022/11/06 14:31:02;;;;;;;;;;;;;;;;;;5085382;28;955;-79
2022/11/06 14:33:51;;;;;;;;;;;;;;;;;;5067507;28;1281;-80
2022/11/06 14:36:23;;;;;;;;;;;;;;;;;;5048038;28;1191;-80
2022/11/06 14:38:48;;;;;;;;;;;;;;;;;;5052672;28;857;-79
2022/11/06 14:41:32;;;;;;;;;;;;;;;;;;5050794;28;1139;-80
2022/11/06 14:43:59;;;;;;;;;;;;;;;;;;5050791;28;1898;-79
2022/11/06 14:46:24;;;;;;;;;;;;;;;;;;5050968;28;1290;-80
2022/11/06 14:48:53;;;;;;;;;;;;;;;;;;5052403;28;896;-79
2022/11/06 14:51:24;;;;;;;;;;;;;;;;;;5051772;28;896;-80
2022/11/06 14:54:13;;;;;;;;;;;;;;;;;;5050309;28;1305;-78
2022/11/06 14:56:38;;;;;;;;;;;;;;;;;;5051194;28;1056;-79
2022/11/06 14:59:15;;;;;;;;;;;;;;;;;;5084061;28;1038;-80
2022/11/06 15:01:52;;;;;;;;;;;;;;;;;;5052092;28;1906;-80
2022/11/06 15:04:18;;;;;;;;;;;;;;;;;;5051750;28;992;-79
2022/11/06 15:06:46;;;;;;;;;;;;;;;;;;5059310;28;1864;-79
2022/11/06 15:09:11;;;;;;;;;;;;;;;;;;5050140;28;1814;-80
2022/11/06 15:11:42;;;;;;;;;;;;;;;;;;5050715;28;1166;-80
2022/11/06 15:14:08;;;;;;;;;;;;;;;;;;5051879;28;1959;-81
2022/11/06 15:16:57;;;;;;;;;;;;;;;;;;5068381;28;1262;-81
2022/11/06 15:19:25;;;;;;;;;;;;;;;;;;5063610;28;1951;-80
2022/11/06 15:21:50;;;;;;;;;;;;;;;;;;5049938;28;2106;-81
2022/11/06 15:24:24;;;;;;;;;;;;;;;;;;5071025;28;1955;-81
2022/11/06 15:26:51;;;;;;;;;;;;;;;;;;5076081;28;1187;-81
2022/11/06 15:29:21;;;;;;;;;;;;;;;;;;5078891;28;2022;-81
2022/11/06 15:31:48;;;;;;;;;;;;;;;;;;5054683;28;809;-81
2022/11/06 15:34:21;;;;;;;;;;;;;;;;;;5055494;28;849;-81
2022/11/06 15:36:50;;;;;;;;;;;;;;;;;;5055586;28;1209;-81
2022/11/06 15:39:27;;;;;;;;;;;;;;;;;;5056497;28;1747;-82
2022/11/06 15:41:53;;;;;;;;;;;;;;;;;;5057747;28;1916;-80
2022/11/06 15:44:20;;;;;;;;;;;;;;;;;;5059247;28;2109;-81
2022/11/06 15:47:03;;;;;;;;;;;;;;;;;;5057457;28;967;-80
2022/11/06 15:49:28;;;;;;;;;;;;;;;;;;5055773;28;1744;-80
2022/11/06 15:51:58;;;;;;;;;;;;;;;;;;5070591;28;2013;-81
2022/11/06 15:54:33;;;;;;;;;;;;;;;;;;5066001;28;2012;-80
2022/11/06 15:57:01;;;;;;;;;;;;;;;;;;5091690;28;1280;-80
2022/11/06 15:59:26;;;;;;;;;;;;;;;;;;5074464;28;1287;-80
2022/11/06 16:01:52;;;;;;;;;;;;;;;;;;5083924;28;1923;-80
2022/11/06 16:04:19;;;;;;;;;;;;;;;;;;5091695;28;1214;-80
2022/11/06 16:06:46;;;;;;;;;;;;;;;;;;5096153;28;1247;-81
2022/11/06 16:09:17;;;;;;;;;;;;;;;;;;5092752;28;1246;-80
2022/11/06 16:11:43;;;;;;;;;;;;;;;;;;5076556;28;1178;-79
2022/11/06 16:14:12;;;;;;;;;;;;;;;;;;5077866;28;951;-80
2022/11/06 16:16:41;;;;;;;;;;;;;;;;;;5075941;28;1222;-79
2022/11/06 16:19:16;;;;;;;;;;;;;;;;;;5076399;28;1045;-78
2022/11/06 16:21:46;;;;;;;;;;;;;;;;;;5075902;28;1496;-79
2022/11/06 16:24:14;;;;;;;;;;;;;;;;;;5075635;28;1054;-79
2022/11/06 16:26:58;;;;;;;;;;;;;;;;;;5075907;28;1384;-79
2022/11/06 16:29:28;;;;;;;;;;;;;;;;;;5074704;28;1183;-79
2022/11/06 16:31:59;;;;;;;;;;;;;;;;;;5076244;28;854;-79
2022/11/06 16:34:30;;;;;;;;;;;;;;;;;;5072859;28;1308;-80
2022/11/06 16:37:02;;;;;;;;;;;;;;;;;;5075952;28;833;-79
2022/11/06 16:39:42;;;;;;;;;;;;;;;;;;5075305;28;832;-79
2022/11/06 16:42:15;;;;;;;;;;;;;;;;;;5075065;28;1919;-79
2022/11/06 16:44:40;;;;;;;;;;;;;;;;;;5076335;28;852;-79
2022/11/06 16:47:09;;;;;;;;;;;;;;;;;;5074946;28;1108;-79
2022/11/06 16:49:34;;;;;;;;;;;;;;;;;;5074337;28;1226;-79
2022/11/06 16:51:59;;;;;;;;;;;;;;;;;;5074449;28;1131;-78
2022/11/06 16:54:27;;;;;;;;;;;;;;;;;;5074075;28;1214;-79
2022/11/06 16:56:53;;;;;;;;;;;;;;;;;;5074979;28;1293;-79
2022/11/06 16:59:23;;;;;;;;;;;;;;;;;;5073826;28;912;-78
2022/11/06 17:01:48;;;;;;;;;;;;;;;;;;5074215;28;1923;-78
2022/11/06 17:04:19;;;;;;;;;;;;;;;;;;5074952;28;920;-78
2022/11/06 17:06:45;;;;;;;;;;;;;;;;;;5075171;28;880;-79
2022/11/06 17:09:31;;;;;;;;;;;;;;;;;;5074722;28;789;-79
2022/11/06 17:11:57;;;;;;;;;;;;;;;;;;5073467;28;1076;-79
2022/11/06 17:14:23;;;;;;;;;;;;;;;;;;5072694;28;1209;-79
2022/11/06 17:16:56;;;;;;;;;;;;;;;;;;5073590;28;1058;-79
2022/11/06 17:19:22;;;;;;;;;;;;;;;;;;5073563;28;1135;-79
2022/11/06 17:21:47;;;;;;;;;;;;;;;;;;5056621;28;1893;-79
2022/11/06 17:24:13;;;;;;;;;;;;;;;;;;5076127;28;1065;-79
2022/11/06 17:26:47;;;;;;;;;;;;;;;;;;5077300;28;1182;-79
2022/11/06 17:29:12;;;;;;;;;;;;;;;;;;5078818;28;1078;-78
2022/11/06 17:31:38;;;;;;;;;;;;;;;;;;5077853;28;1194;-77
2022/11/06 17:34:03;;;;;;;;;;;;;;;;;;5077995;28;1203;-78
2022/11/06 17:36:29;;;;;;;;;;;;;;;;;;5078929;28;961;-79